Time;durP1;ratioP1;P1;durP2;ratioP2;P2;SDS_P1;SDS_P2;PMS_P1;PMS_P2;Temp;Humidity;BMP_temperature;BMP_pressure;BME280_temperature;BME280_humidity;BME280_pressure;Samples;Min_cycle;Max_cycle;Signal;HPM_P1;HPM_P2
2023/09/10 00:01:05;;;;;;;5.10;3.97;;;25.50;71.50;;;;;;5014308;28;20229;-15
2023/09/10 00:03:34;;;;;;;5.53;4.03;;;25.50;71.60;;;;;;5048792;28;20059;-15
2023/09/10 00:06:01;;;;;;;5.43;4.57;;;25.40;72.90;;;;;;5044792;28;20071;-18
2023/09/10 00:08:28;;;;;;;5.20;3.92;;;25.40;71.70;;;;;;5044971;28;20059;-18
2023/09/10 00:10:55;;;;;;;4.72;4.10;;;25.40;71.70;;;;;;5049802;28;20467;-18
2023/09/10 00:13:21;;;;;;;4.72;3.83;;;25.30;71.80;;;;;;5057448;28;20016;-18
2023/09/10 00:15:47;;;;;;;5.63;4.23;;;25.30;71.80;;;;;;5016750;28;22972;-18
2023/09/10 00:18:14;;;;;;;5.20;4.05;;;25.30;71.80;;;;;;5019693;28;20031;-18
2023/09/10 00:20:40;;;;;;;5.60;3.88;;;25.30;72.20;;;;;;5051543;28;20036;-18
2023/09/10 00:23:07;;;;;;;5.77;4.13;;;25.20;71.90;;;;;;5000304;28;20218;-18
2023/09/10 00:25:32;;;;;;;6.65;4.15;;;25.20;72.10;;;;;;5051701;28;20107;-18
2023/09/10 00:27:58;;;;;;;5.20;3.90;;;25.20;72.20;;;;;;5051409;28;20043;-18
2023/09/10 00:30:26;;;;;;;5.30;4.10;;;25.10;72.20;;;;;;5012958;28;20043;-18
2023/09/10 00:32:51;;;;;;;5.73;3.90;;;25.10;72.20;;;;;;5055645;28;20283;-18
2023/09/10 00:35:17;;;;;;;5.93;3.85;;;25.10;72.30;;;;;;5027286;28;20138;-18
2023/09/10 00:37:43;;;;;;;4.53;4.00;;;25.00;72.20;;;;;;5052846;28;20024;-18
2023/09/10 00:40:09;;;;;;;5.97;4.03;;;25.00;72.30;;;;;;5040510;28;20032;-18
2023/09/10 00:42:36;;;;;;;5.68;4.10;;;25.00;72.40;;;;;;5058214;28;20064;-18
2023/09/10 00:45:03;;;;;;;5.10;3.80;;;24.90;72.50;;;;;;5013654;28;20854;-18
2023/09/10 00:47:29;;;;;;;4.93;3.93;;;24.90;72.60;;;;;;5058109;28;20386;-18
2023/09/10 00:49:55;;;;;;;5.65;3.95;;;24.90;72.70;;;;;;5013015;28;20028;-18
2023/09/10 00:52:25;;;;;;;5.45;4.40;;;24.90;72.70;;;;;;5062922;28;20035;-18
2023/09/10 00:54:51;;;;;;;5.53;3.90;;;24.90;72.80;;;;;;5040765;28;20119;-18
2023/09/10 00:57:16;;;;;;;5.10;4.20;;;24.80;72.80;;;;;;5053221;28;20629;-18
2023/09/10 00:59:43;;;;;;;5.68;4.30;;;24.80;73.60;;;;;;5061792;28;20024;-18
2023/09/10 01:02:09;;;;;;;5.00;3.95;;;24.80;73.00;;;;;;5030370;28;20406;-15
2023/09/10 01:04:35;;;;;;;4.47;3.90;;;24.70;73.10;;;;;;5075841;22;20406;-19
2023/09/10 01:07:02;;;;;;;5.03;4.10;;;24.70;73.10;;;;;;5042884;28;20114;-17
2023/09/10 01:09:28;;;;;;;6.05;4.22;;;24.70;73.30;;;;;;5042533;28;20039;-17
2023/09/10 01:12:39;;;;;;;5.60;3.93;;;24.70;73.30;;;;;;5042467;28;20636;-18
2023/09/10 01:15:10;;;;;;;4.80;4.05;;;24.60;74.80;;;;;;5050623;28;20115;-18
2023/09/10 01:18:01;;;;;;;6.70;4.43;;;24.60;74.10;;;;;;5030352;28;20052;-18
2023/09/10 01:20:54;;;;;;;4.82;4.00;;;24.50;74.90;;;;;;5046799;28;20028;-18
2023/09/10 01:23:41;;;;;;;5.55;3.97;;;24.50;75.00;;;;;;5052634;28;20317;-18
2023/09/10 01:26:07;;;;;;;4.63;3.83;;;24.40;74.00;;;;;;5060697;28;20445;-17
2023/09/10 01:28:33;;;;;;;7.80;4.53;;;24.40;73.70;;;;;;5038403;28;20089;-18
2023/09/10 01:30:59;;;;;;;5.20;4.23;;;24.30;73.80;;;;;;5053305;28;20035;-17
2023/09/10 01:33:35;;;;;;;4.78;4.22;;;24.30;74.00;;;;;;5014198;28;20040;-18
2023/09/10 01:36:07;;;;;;;4.47;3.90;;;24.30;75.30;;;;;;5055311;28;20103;-17
2023/09/10 01:38:43;;;;;;;5.38;4.20;;;24.30;74.30;;;;;;5042449;28;20658;-18
2023/09/10 01:41:17;;;;;;;4.93;3.70;;;24.20;75.20;;;;;;5038879;28;20063;-17
2023/09/10 01:43:43;;;;;;;5.55;4.00;;;24.20;76.00;;;;;;5041137;28;20691;-17
2023/09/10 01:46:11;;;;;;;4.65;4.00;;;24.20;74.40;;;;;;5036868;28;20111;-17
2023/09/10 01:48:36;;;;;;;6.50;4.45;;;24.10;74.50;;;;;;5012320;28;20048;-17
2023/09/10 01:51:02;;;;;;;5.83;3.93;;;24.10;74.50;;;;;;5036087;28;20098;-17
2023/09/10 01:53:28;;;;;;;5.07;3.80;;;24.00;74.70;;;;;;5041596;28;20024;-18
2023/09/10 01:55:55;;;;;;;5.22;3.70;;;24.00;74.70;;;;;;5041617;28;20135;-17
2023/09/10 01:58:21;;;;;;;4.50;3.60;;;24.00;74.90;;;;;;5044656;28;20578;-18
2023/09/10 02:00:46;;;;;;;4.47;3.80;;;24.00;74.90;;;;;;5049363;28;20035;-18
2023/09/10 02:03:12;;;;;;;5.75;4.25;;;24.00;74.90;;;;;;5048781;28;20033;-17
2023/09/10 02:05:38;;;;;;;4.40;4.00;;;23.90;74.90;;;;;;5026174;28;20028;-18
2023/09/10 02:08:05;;;;;;;5.30;3.80;;;23.90;75.00;;;;;;5022919;28;20036;-17
2023/09/10 02:10:33;;;;;;;4.27;3.50;;;23.90;75.30;;;;;;5035016;28;20033;-18
2023/09/10 02:12:58;;;;;;;5.85;3.70;;;23.80;75.40;;;;;;5047856;28;20033;-17
2023/09/10 02:15:25;;;;;;;5.55;3.70;;;23.80;75.20;;;;;;5038102;28;20025;-20
2023/09/10 02:17:53;;;;;;;4.80;3.67;;;23.80;75.30;;;;;;5048160;28;20666;-20
2023/09/10 02:20:19;;;;;;;4.57;3.70;;;23.70;75.50;;;;;;5025687;28;20490;-20
2023/09/10 02:22:45;;;;;;;4.43;3.42;;;23.70;75.40;;;;;;5039428;28;22493;-20
2023/09/10 02:25:10;;;;;;;4.00;3.50;;;23.70;75.50;;;;;;5038564;28;20030;-20
2023/09/10 02:27:36;;;;;;;4.60;3.43;;;23.70;75.60;;;;;;5048841;28;20029;-20
2023/09/10 02:30:03;;;;;;;4.90;3.53;;;23.70;75.70;;;;;;5026278;28;20093;-20
2023/09/10 02:32:31;;;;;;;4.07;3.20;;;23.70;75.70;;;;;;5064110;28;20099;-20
2023/09/10 02:34:57;;;;;;;4.35;3.13;;;23.60;75.70;;;;;;5028647;28;20029;-20
2023/09/10 02:37:23;;;;;;;4.30;3.30;;;23.60;75.70;;;;;;5044691;28;20035;-20
2023/09/10 02:39:49;;;;;;;4.20;3.08;;;23.60;75.80;;;;;;5037869;28;20415;-20
2023/09/10 02:42:14;;;;;;;3.50;3.03;;;23.60;75.90;;;;;;5041831;28;20104;-20
2023/09/10 02:44:40;;;;;;;4.20;3.03;;;23.50;75.90;;;;;;5044415;28;20227;-21
2023/09/10 02:47:06;;;;;;;5.53;3.53;;;23.60;75.90;;;;;;5043052;28;20075;-20
2023/09/10 02:49:33;;;;;;;4.50;3.37;;;23.50;75.90;;;;;;5029020;28;20023;-20
2023/09/10 02:51:58;;;;;;;3.75;3.05;;;23.50;76.10;;;;;;5052250;28;20028;-20
2023/09/10 02:54:24;;;;;;;4.32;3.20;;;23.50;76.80;;;;;;5034175;28;20045;-20
2023/09/10 02:56:51;;;;;;;3.87;3.20;;;23.40;76.10;;;;;;5038843;28;20470;-20
2023/09/10 02:59:21;;;;;;;4.22;3.35;;;23.40;76.30;;;;;;5053444;28;20036;-20
2023/09/10 03:01:48;;;;;;;3.75;3.13;;;23.40;76.80;;;;;;5039217;28;21032;-20
2023/09/10 03:04:17;;;;;;;4.27;3.33;;;23.40;76.40;;;;;;5053819;28;20525;-20
2023/09/10 03:06:44;;;;;;;4.70;3.20;;;23.40;77.00;;;;;;5032214;28;20131;-20
2023/09/10 03:09:13;;;;;;;3.58;3.03;;;23.30;76.60;;;;;;5057596;28;20029;-20
2023/09/10 03:11:40;;;;;;;4.30;3.00;;;23.30;76.70;;;;;;5037179;28;20418;-20
2023/09/10 03:14:06;;;;;;;4.05;3.13;;;23.30;77.60;;;;;;5046931;28;20024;-20
2023/09/10 03:16:34;;;;;;;4.00;3.07;;;23.30;76.90;;;;;;5053281;28;20024;-20
2023/09/10 03:19:00;;;;;;;3.42;3.08;;;23.20;77.00;;;;;;5044762;28;20920;-20
2023/09/10 03:21:27;;;;;;;3.83;3.28;;;23.20;77.00;;;;;;5034666;28;20028;-20
2023/09/10 03:23:53;;;;;;;3.90;3.17;;;23.20;77.20;;;;;;5057644;28;20184;-20
2023/09/10 03:26:19;;;;;;;3.58;3.10;;;23.20;77.20;;;;;;5045537;28;20510;-20
2023/09/10 03:28:44;;;;;;;3.87;2.93;;;23.10;77.30;;;;;;5040393;28;20334;-20
2023/09/10 03:31:10;;;;;;;4.40;3.35;;;23.10;77.30;;;;;;5055347;28;20448;-20
2023/09/10 03:33:36;;;;;;;4.43;3.50;;;23.10;77.40;;;;;;5041925;28;20031;-20
2023/09/10 03:36:02;;;;;;;4.53;3.13;;;23.10;77.50;;;;;;5024022;28;20446;-20
2023/09/10 03:38:28;;;;;;;4.15;3.33;;;23.00;77.50;;;;;;5041511;28;20024;-20
2023/09/10 03:40:54;;;;;;;4.80;3.45;;;23.00;77.60;;;;;;5045322;28;20540;-20
2023/09/10 03:43:20;;;;;;;5.93;3.43;;;23.00;77.70;;;;;;5040502;28;20032;-20
2023/09/10 03:45:46;;;;;;;4.22;3.40;;;23.00;77.70;;;;;;5058194;28;20111;-21
2023/09/10 03:48:12;;;;;;;5.33;3.60;;;22.90;77.80;;;;;;5054467;28;20028;-20
2023/09/10 03:50:39;;;;;;;5.07;3.22;;;22.90;78.00;;;;;;5032573;28;20013;-20
2023/09/10 03:53:05;;;;;;;4.63;3.55;;;22.90;78.10;;;;;;5033150;28;20032;-20
2023/09/10 03:55:31;;;;;;;4.53;3.60;;;23.00;78.20;;;;;;5057126;28;20395;-20
2023/09/10 03:57:56;;;;;;;5.03;3.50;;;22.90;78.20;;;;;;5048639;28;20048;-20
2023/09/10 04:00:22;;;;;;;5.45;3.70;;;22.90;78.20;;;;;;5038374;28;20199;-20
2023/09/10 04:02:48;;;;;;;5.63;3.80;;;22.90;78.20;;;;;;5044351;28;20111;-20
2023/09/10 04:05:14;;;;;;;4.13;3.72;;;22.90;78.20;;;;;;5045346;28;20075;-20
2023/09/10 04:07:40;;;;;;;5.40;3.53;;;22.80;78.30;;;;;;5036996;28;20036;-20
2023/09/10 04:10:07;;;;;;;4.50;3.50;;;22.80;78.40;;;;;;5035805;28;20100;-20
2023/09/10 04:12:33;;;;;;;3.58;2.97;;;22.80;78.60;;;;;;5047452;28;20541;-20
2023/09/10 04:14:59;;;;;;;4.63;3.60;;;22.80;78.40;;;;;;5026749;28;20028;-20
2023/09/10 04:17:28;;;;;;;4.67;3.63;;;22.80;78.60;;;;;;5055473;28;20181;-20
2023/09/10 04:19:54;;;;;;;4.53;3.72;;;22.80;78.60;;;;;;5041805;28;20020;-20
2023/09/10 04:22:21;;;;;;;4.57;3.90;;;22.80;78.70;;;;;;5030160;28;20127;-20
2023/09/10 04:24:46;;;;;;;5.93;3.55;;;22.70;78.70;;;;;;5054226;28;20097;-20
2023/09/10 04:27:12;;;;;;;5.10;3.77;;;22.70;78.70;;;;;;5044926;28;20052;-20
2023/09/10 04:29:38;;;;;;;5.43;3.70;;;22.70;78.80;;;;;;5040068;28;20559;-20
2023/09/10 04:32:04;;;;;;;4.60;3.77;;;22.70;79.00;;;;;;5054331;28;20024;-20
2023/09/10 04:34:29;;;;;;;4.57;3.83;;;22.70;79.00;;;;;;5048319;28;20804;-20
2023/09/10 04:36:55;;;;;;;4.97;3.58;;;22.70;79.00;;;;;;5041583;28;20078;-17
2023/09/10 04:39:21;;;;;;;4.43;3.57;;;22.70;79.10;;;;;;5023106;28;20337;-17
2023/09/10 04:41:47;;;;;;;5.40;4.00;;;22.70;79.10;;;;;;5046900;28;20032;-17
2023/09/10 04:44:13;;;;;;;6.05;3.55;;;22.60;79.90;;;;;;5028863;28;20513;-18
2023/09/10 04:46:38;;;;;;;4.13;3.53;;;22.60;79.10;;;;;;5048735;28;20024;-17
2023/09/10 04:49:04;;;;;;;4.50;3.72;;;22.60;79.10;;;;;;5051648;28;20032;-18
2023/09/10 04:51:30;;;;;;;4.40;3.30;;;22.60;79.20;;;;;;5055893;28;20032;-17
2023/09/10 04:53:56;;;;;;;4.28;3.38;;;22.60;79.30;;;;;;5018303;28;20450;-17
2023/09/10 04:56:22;;;;;;;6.77;3.47;;;22.50;79.30;;;;;;5048871;28;20446;-17
2023/09/10 04:58:47;;;;;;;4.90;3.72;;;22.50;79.30;;;;;;5048119;28;20040;-17
2023/09/10 05:01:14;;;;;;;4.13;3.45;;;22.50;79.40;;;;;;5022932;28;20529;-18
2023/09/10 05:03:41;;;;;;;3.87;3.33;;;22.50;79.60;;;;;;5027293;28;20714;-17
2023/09/10 05:06:07;;;;;;;4.15;3.47;;;22.50;79.50;;;;;;5056022;28;20119;-17
2023/09/10 05:08:34;;;;;;;4.68;3.45;;;22.40;79.90;;;;;;5023109;28;20052;-18
2023/09/10 05:11:00;;;;;;;6.05;3.92;;;22.40;79.70;;;;;;5055299;28;20028;-17
2023/09/10 05:13:26;;;;;;;5.00;3.95;;;22.40;79.80;;;;;;5049894;28;20070;-18
2023/09/10 05:15:57;;;;;;;4.37;3.73;;;22.40;79.90;;;;;;4996062;28;20033;-17
2023/09/10 05:18:26;;;;;;;5.38;3.92;;;22.40;80.00;;;;;;5046038;28;20498;-17
2023/09/10 05:20:52;;;;;;;5.00;3.67;;;22.40;80.10;;;;;;5053706;28;20126;-17
2023/09/10 05:23:21;;;;;;;5.15;3.80;;;22.40;80.10;;;;;;5032267;28;20128;-17
2023/09/10 05:25:47;;;;;;;5.68;3.85;;;22.40;80.40;;;;;;5047775;28;20082;-17
2023/09/10 05:28:13;;;;;;;4.73;3.70;;;22.40;80.30;;;;;;5049282;28;20041;-17
2023/09/10 05:30:39;;;;;;;5.15;3.60;;;22.40;80.40;;;;;;5008089;28;20875;-17
2023/09/10 05:33:05;;;;;;;4.68;3.60;;;22.40;80.40;;;;;;5034775;28;20020;-18
2023/09/10 05:35:30;;;;;;;4.97;3.63;;;22.40;80.60;;;;;;5039420;28;20195;-17
2023/09/10 05:37:56;;;;;;;4.97;3.88;;;22.40;80.60;;;;;;5037042;28;20571;-17
2023/09/10 05:40:22;;;;;;;4.97;4.10;;;22.40;80.70;;;;;;5025662;28;20040;-17
2023/09/10 05:42:48;;;;;;;5.03;3.83;;;22.40;80.80;;;;;;5055447;28;20107;-17
2023/09/10 05:45:13;;;;;;;5.20;3.97;;;22.40;80.90;;;;;;5027212;28;20620;-18
2023/09/10 05:47:39;;;;;;;5.70;3.73;;;22.40;81.10;;;;;;5042856;28;20070;-17
2023/09/10 05:50:05;;;;;;;5.47;3.80;;;22.40;81.20;;;;;;5040138;28;20031;-18
2023/09/10 05:52:31;;;;;;;4.53;3.50;;;22.40;81.30;;;;;;5048623;28;20459;-17
2023/09/10 05:54:57;;;;;;;4.63;3.83;;;22.40;81.40;;;;;;5009972;28;20055;-18
2023/09/10 05:57:22;;;;;;;4.67;3.70;;;22.40;81.50;;;;;;5048953;28;20057;-17
2023/09/10 05:59:49;;;;;;;7.60;3.67;;;22.50;81.70;;;;;;5053227;28;20115;-17
2023/09/10 06:02:15;;;;;;;5.93;4.00;;;22.50;81.80;;;;;;5027756;28;20112;-18
2023/09/10 06:04:41;;;;;;;6.37;4.00;;;22.50;82.00;;;;;;5044514;28;20040;-17
2023/09/10 06:07:06;;;;;;;5.13;3.40;;;22.60;82.10;;;;;;5048629;28;20044;-18
2023/09/10 06:09:32;;;;;;;4.27;3.83;;;22.60;82.20;;;;;;5030425;28;20372;-17
2023/09/10 06:12:00;;;;;;;5.38;3.80;;;22.60;82.30;;;;;;5052291;28;20059;-18
2023/09/10 06:14:26;;;;;;;5.35;3.80;;;22.60;82.60;;;;;;5049359;28;20025;-17
2023/09/10 06:16:51;;;;;;;5.10;4.10;;;22.70;82.70;;;;;;5044994;28;20021;-17
2023/09/10 06:19:17;;;;;;;6.20;4.20;;;22.70;82.70;;;;;;5026780;28;20263;-17
2023/09/10 06:21:43;;;;;;;6.97;4.03;;;22.80;82.90;;;;;;5051558;28;20040;-18
2023/09/10 06:24:09;;;;;;;4.57;3.60;;;22.80;83.00;;;;;;5052872;28;20024;-18
2023/09/10 06:26:35;;;;;;;6.22;3.88;;;22.80;83.10;;;;;;5031477;28;20108;-17
2023/09/10 06:29:00;;;;;;;5.37;3.53;;;22.90;83.30;;;;;;5050515;28;20039;-18
2023/09/10 06:31:26;;;;;;;5.32;3.80;;;22.90;83.40;;;;;;5049358;28;21309;-17
2023/09/10 06:33:54;;;;;;;4.00;3.40;;;23.00;83.50;;;;;;5040015;28;20024;-18
2023/09/10 06:36:20;;;;;;;4.80;3.70;;;23.00;84.00;;;;;;5040357;28;20033;-17
2023/09/10 06:38:49;;;;;;;5.07;3.65;;;23.10;83.90;;;;;;5053741;28;20517;-17
2023/09/10 06:41:16;;;;;;;4.97;3.88;;;23.10;84.00;;;;;;5026629;28;20097;-18
2023/09/10 06:43:42;;;;;;;4.93;3.65;;;23.20;84.10;;;;;;5056703;28;20383;-18
2023/09/10 06:46:08;;;;;;;4.45;3.63;;;23.20;84.20;;;;;;5053626;28;20525;-18
2023/09/10 06:48:34;;;;;;;4.37;3.60;;;23.30;84.30;;;;;;5045363;28;20123;-18
2023/09/10 06:51:01;;;;;;;5.82;3.55;;;23.40;84.50;;;;;;5043273;28;20581;-18
2023/09/10 06:53:30;;;;;;;5.57;3.78;;;23.50;85.30;;;;;;5060062;28;20303;-17
2023/09/10 06:55:57;;;;;;;4.00;3.30;;;23.50;85.10;;;;;;5057213;28;20115;-17
2023/09/10 06:58:23;;;;;;;5.95;3.50;;;23.60;85.00;;;;;;5045316;28;20235;-17
2023/09/10 07:00:49;;;;;;;6.03;3.65;;;23.70;84.90;;;;;;5056229;28;20032;-17
2023/09/10 07:03:15;;;;;;;4.28;3.45;;;23.70;87.10;;;;;;5051168;28;20507;-18
2023/09/10 07:05:42;;;;;;;4.30;3.23;;;23.90;85.40;;;;;;5040690;28;20040;-17
2023/09/10 07:08:11;;;;;;;5.07;3.75;;;25.70;90.00;;;;;;5039659;28;20489;-18
2023/09/10 07:10:37;;;;;;;4.78;3.55;;;24.10;86.20;;;;;;5053404;28;20107;-17
2023/09/10 07:13:08;;;;;;;6.10;3.65;;;24.30;86.60;;;;;;5032903;28;20024;-18
2023/09/10 07:15:34;;;;;;;4.63;3.75;;;24.50;86.90;;;;;;5049707;28;20198;-17
2023/09/10 07:18:01;;;;;;;3.73;3.33;;;24.60;86.60;;;;;;5051507;28;20540;-18
2023/09/10 07:20:27;;;;;;;4.57;3.60;;;24.80;86.40;;;;;;5040511;28;21848;-17
2023/09/10 07:22:54;;;;;;;4.88;3.70;;;25.00;86.30;;;;;;5046512;28;20020;-17
2023/09/10 07:25:19;;;;;;;4.93;3.55;;;25.20;86.80;;;;;;5050470;28;20040;-17
2023/09/10 07:27:45;;;;;;;5.13;3.37;;;25.40;87.70;;;;;;5036014;28;20040;-17
2023/09/10 07:30:11;;;;;;;4.65;3.28;;;25.60;88.50;;;;;;5053353;28;20117;-18
2023/09/10 07:32:37;;;;;;;4.25;3.15;;;26.00;88.80;;;;;;5051118;28;20066;-17
2023/09/10 07:35:03;;;;;;;3.93;3.30;;;26.30;88.70;;;;;;5039121;28;20037;-18
2023/09/10 07:37:29;;;;;;;4.60;3.30;;;26.60;88.60;;;;;;5022159;28;20340;-17
2023/09/10 07:39:55;;;;;;;4.53;3.20;;;27.00;89.10;;;;;;5054138;28;20036;-17
2023/09/10 07:42:21;;;;;;;5.10;3.53;;;27.40;89.20;;;;;;5039756;28;20760;-18
2023/09/10 07:44:47;;;;;;;3.90;3.03;;;27.80;89.40;;;;;;5028065;28;20055;-18
2023/09/10 07:47:13;;;;;;;4.10;3.40;;;28.20;89.30;;;;;;5050478;28;20021;-18
2023/09/10 07:49:38;;;;;;;4.28;3.28;;;28.70;89.00;;;;;;5093455;22;20138;-15
2023/09/10 07:52:05;;;;;;;4.88;3.47;;;29.00;88.50;;;;;;5026788;28;20112;-16
2023/09/10 07:54:31;;;;;;;4.38;3.50;;;29.50;88.40;;;;;;5012256;28;20047;-16
2023/09/10 07:56:57;;;;;;;4.15;3.10;;;29.90;87.80;;;;;;5045973;28;21104;-18
2023/09/10 07:59:23;;;;;;;4.70;3.10;;;30.30;87.60;;;;;;5027147;28;20035;-14
2023/09/10 08:01:49;;;;;;;4.70;3.35;;;30.70;87.10;;;;;;5043865;28;20029;-13
2023/09/10 08:04:15;;;;;;;3.83;3.13;;;31.20;86.60;;;;;;5045999;28;20033;-13
2023/09/10 08:06:41;;;;;;;4.10;3.00;;;32.70;84.10;;;;;;5046011;28;20040;-14
2023/09/10 08:09:07;;;;;;;3.75;3.25;;;31.90;85.20;;;;;;5034231;28;20041;-17
2023/09/10 08:11:33;;;;;;;3.73;3.40;;;32.30;84.60;;;;;;5045240;28;20591;-15
2023/09/10 08:13:59;;;;;;;5.80;3.40;;;32.70;83.90;;;;;;5036269;28;20150;-16
2023/09/10 08:16:25;;;;;;;4.45;3.10;;;33.00;82.80;;;;;;5056082;28;20051;-15
2023/09/10 08:18:51;;;;;;;4.30;3.77;;;33.40;81.90;;;;;;5054569;28;20090;-13
2023/09/10 08:21:17;;;;;;;6.00;3.90;;;33.70;81.30;;;;;;5050204;28;20282;-14
2023/09/10 08:23:43;;;;;;;5.25;3.60;;;34.00;80.50;;;;;;5016589;28;20032;-14
2023/09/10 08:26:09;;;;;;;4.00;3.55;;;34.30;79.60;;;;;;5051352;28;20052;-14
2023/09/10 08:28:35;;;;;;;5.37;3.60;;;34.60;78.80;;;;;;5048560;28;20028;-15
2023/09/10 08:31:00;;;;;;;5.13;3.30;;;34.90;78.10;;;;;;5018454;28;20433;-13
2023/09/10 08:33:26;;;;;;;5.03;3.60;;;35.10;77.60;;;;;;5055049;28;20731;-15
2023/09/10 08:35:53;;;;;;;4.82;3.20;;;35.40;76.70;;;;;;5058308;28;20017;-14
2023/09/10 08:38:19;;;;;;;4.20;3.25;;;35.70;76.10;;;;;;5042067;28;20049;-15
2023/09/10 08:41:00;;;;;;;4.30;3.40;;;35.80;75.00;;;;;;5040319;28;20749;-16
2023/09/10 08:43:55;;;;;;;4.28;3.30;;;36.30;70.90;;;;;;5057112;28;20082;-14
2023/09/10 08:46:23;;;;;;;5.35;3.85;;;36.60;69.90;;;;;;5037628;28;20082;-15
2023/09/10 08:48:51;;;;;;;4.35;3.80;;;36.80;72.30;;;;;;5053281;28;20025;-14
2023/09/10 08:51:18;;;;;;;3.58;3.20;;;37.10;71.00;;;;;;5028133;28;20045;-16
2023/09/10 08:53:46;;;;;;;5.30;4.00;;;37.30;70.90;;;;;;5019201;28;20746;-14
2023/09/10 08:56:15;;;;;;;4.97;3.70;;;37.50;70.20;;;;;;5026684;28;20045;-14
2023/09/10 08:58:43;;;;;;;5.03;3.65;;;37.80;68.10;;;;;;5021768;28;20249;-14
2023/09/10 09:01:10;;;;;;;4.20;3.80;;;38.00;68.40;;;;;;4976530;28;20644;-14
2023/09/10 09:03:36;;;;;;;3.90;3.60;;;38.30;67.50;;;;;;5025254;28;20548;-14
2023/09/10 09:06:03;;;;;;;3.97;3.57;;;38.50;67.70;;;;;;5010047;28;20534;-14
2023/09/10 09:08:34;;;;;;;4.82;3.90;;;38.60;65.70;;;;;;5018858;28;20050;-14
2023/09/10 09:11:05;;;;;;;4.55;3.75;;;38.90;63.70;;;;;;5012780;28;20052;-15
2023/09/10 09:13:38;;;;;;;3.92;3.50;;;39.00;63.10;;;;;;5013692;28;20041;-14
2023/09/10 09:16:05;;;;;;;5.05;4.05;;;39.20;63.20;;;;;;5025869;28;20029;-15
2023/09/10 09:18:33;;;;;;;5.87;4.33;;;39.40;63.50;;;;;;5008066;28;20699;-18
2023/09/10 09:21:05;;;;;;;5.07;4.00;;;39.60;62.70;;;;;;5031614;28;20036;-16
2023/09/10 09:23:46;;;;;;;4.65;4.25;;;39.70;60.80;;;;;;5022684;28;20047;-16
2023/09/10 09:26:14;;;;;;;4.95;4.30;;;39.90;59.10;;;;;;5018724;28;20210;-16
2023/09/10 09:28:40;;;;;;;4.63;4.22;;;40.10;60.70;;;;;;5010541;28;20037;-16
2023/09/10 09:31:10;;;;;;;4.50;4.10;;;40.20;60.30;;;;;;5031359;28;20024;-16
2023/09/10 09:33:37;;;;;;;5.90;4.65;;;40.40;58.40;;;;;;5003553;28;20061;-16
2023/09/10 09:36:10;;;;;;;5.82;4.90;;;40.60;58.70;;;;;;5019263;28;20036;-16
2023/09/10 09:38:44;;;;;;;6.97;4.45;;;40.80;56.70;;;;;;5027904;28;20041;-16
2023/09/10 09:41:11;;;;;;;5.07;4.38;;;41.00;56.60;;;;;;5012123;28;20037;-16
2023/09/10 09:43:37;;;;;;;6.87;4.53;;;41.10;57.10;;;;;;5013142;28;20034;-16
2023/09/10 09:46:03;;;;;;;4.63;4.13;;;41.20;56.50;;;;;;5022246;28;20029;-17
2023/09/10 09:48:30;;;;;;;5.35;4.03;;;41.30;56.20;;;;;;4994645;28;20388;-16
2023/09/10 09:50:57;;;;;;;4.30;3.88;;;41.50;55.80;;;;;;5017279;28;20048;-18
2023/09/10 09:53:27;;;;;;;4.70;4.20;;;41.50;55.20;;;;;;5028028;28;20025;-16
2023/09/10 09:56:01;;;;;;;5.47;4.78;;;41.70;53.60;;;;;;5010943;28;20068;-15
2023/09/10 09:58:29;;;;;;;4.82;4.43;;;41.80;54.10;;;;;;5025223;28;20028;-18
2023/09/10 10:01:00;;;;;;;4.57;4.18;;;41.90;53.90;;;;;;5025370;28;20040;-17
2023/09/10 10:03:29;;;;;;;4.88;4.38;;;42.10;52.70;;;;;;5016926;28;20029;-17
2023/09/10 10:05:55;;;;;;;4.37;3.93;;;42.20;52.60;;;;;;5001828;28;20025;-16
2023/09/10 10:08:26;;;;;;;4.90;4.40;;;42.30;52.80;;;;;;4999012;28;20071;-17
2023/09/10 10:10:52;;;;;;;5.97;4.88;;;42.50;51.70;;;;;;5011303;28;20104;-16
2023/09/10 10:13:20;;;;;;;6.03;5.00;;;42.70;52.40;;;;;;5025137;28;20031;-18
2023/09/10 10:15:50;;;;;;;6.33;4.63;;;42.90;52.10;;;;;;5010140;28;20025;-16
2023/09/10 10:18:18;;;;;;;5.13;4.72;;;43.00;50.70;;;;;;5026372;28;20103;-17
2023/09/10 10:20:47;;;;;;;5.75;5.00;;;43.20;51.10;;;;;;5001755;28;20040;-16
2023/09/10 10:23:14;;;;;;;5.35;4.85;;;43.30;50.80;;;;;;5018486;28;21816;-17
2023/09/10 10:25:41;;;;;;;6.00;5.03;;;43.40;50.60;;;;;;5024076;28;20086;-15
2023/09/10 10:28:09;;;;;;;5.30;4.80;;;43.50;50.00;;;;;;5012084;28;20124;-14
2023/09/10 10:30:59;;;;;;;5.40;4.80;;;43.60;49.70;;;;;;5028180;28;20029;-14
2023/09/10 10:33:26;;;;;;;5.72;5.22;;;43.80;48.30;;;;;;5031431;28;20021;-14
2023/09/10 10:36:03;;;;;;;5.82;5.00;;;43.80;49.30;;;;;;4991484;28;21038;-14
2023/09/10 10:38:34;;;;;;;5.65;5.15;;;44.00;47.20;;;;;;5006727;28;20865;-16
2023/09/10 10:41:05;;;;;;;5.60;5.10;;;44.00;47.60;;;;;;5019763;28;20025;-15
2023/09/10 10:43:38;;;;;;;5.00;4.60;;;44.10;47.00;;;;;;5003830;28;20029;-15
2023/09/10 10:46:06;;;;;;;5.50;5.00;;;44.20;47.40;;;;;;5023722;28;20118;-16
2023/09/10 10:48:36;;;;;;;5.30;4.80;;;44.30;48.00;;;;;;5020731;28;20266;-16
2023/09/10 10:51:03;;;;;;;5.50;5.00;;;44.40;47.50;;;;;;5008082;28;20428;-16
2023/09/10 10:53:30;;;;;;;5.17;4.67;;;44.50;47.10;;;;;;5016945;28;20049;-18
2023/09/10 10:55:57;;;;;;;4.60;3.97;;;44.50;46.60;;;;;;5024871;28;20033;-16
2023/09/10 10:58:24;;;;;;;5.50;5.00;;;44.60;46.50;;;;;;5024199;28;20530;-15
2023/09/10 11:00:54;;;;;;;5.32;4.82;;;44.70;46.20;;;;;;5018371;28;20037;-16
2023/09/10 11:03:22;;;;;;;6.93;4.60;;;44.70;44.90;;;;;;4999329;28;20054;-16
2023/09/10 11:05:53;;;;;;;4.97;4.57;;;44.80;45.70;;;;;;5030493;28;20038;-16
2023/09/10 11:08:36;;;;;;;5.10;4.22;;;44.90;44.70;;;;;;5004165;28;20045;-16
2023/09/10 11:11:04;;;;;;;5.10;4.60;;;44.90;44.00;;;;;;5025892;28;20581;-16
2023/09/10 11:13:32;;;;;;;6.15;4.40;;;44.90;44.70;;;;;;5020189;28;20099;-17
2023/09/10 11:16:04;;;;;;;5.32;4.78;;;45.00;44.70;;;;;;5116931;22;20737;-18
2023/09/10 11:18:36;;;;;;;5.37;4.77;;;45.00;44.10;;;;;;5030157;28;20543;-19
2023/09/10 11:21:13;;;;;;;5.35;4.88;;;45.10;43.60;;;;;;5065819;22;20726;-17
2023/09/10 11:24:01;;;;;;;5.38;4.88;;;45.20;43.30;;;;;;5025392;28;20412;-16
2023/09/10 11:26:26;;;;;;;5.53;5.03;;;45.20;43.80;;;;;;5059005;28;20078;-16
2023/09/10 11:28:57;;;;;;;5.50;5.00;;;45.40;43.90;;;;;;5037618;28;20044;-18
2023/09/10 11:31:38;;;;;;;5.50;4.50;;;45.40;42.90;;;;;;5033426;28;20049;-17
2023/09/10 11:34:23;;;;;;;6.03;4.72;;;45.40;43.30;;;;;;5047613;28;20029;-18
2023/09/10 11:37:06;;;;;;;5.82;5.20;;;45.40;42.80;;;;;;5051665;28;20846;-16
2023/09/10 11:39:33;;;;;;;6.70;5.40;;;45.50;42.50;;;;;;5037570;28;20033;-15
2023/09/10 11:42:01;;;;;;;6.40;5.05;;;45.60;43.00;;;;;;5048073;28;20044;-14
2023/09/10 11:44:38;;;;;;;7.57;5.38;;;45.60;43.50;;;;;;5038461;28;20071;-15
2023/09/10 11:47:04;;;;;;;6.22;4.80;;;45.70;41.60;;;;;;5029087;28;20033;-15
2023/09/10 11:49:30;;;;;;;5.65;5.05;;;45.70;42.20;;;;;;5041969;28;20025;-15
2023/09/10 11:51:57;;;;;;;4.73;4.23;;;45.80;41.80;;;;;;5045721;28;20021;-14
2023/09/10 11:54:23;;;;;;;6.20;4.90;;;45.90;41.40;;;;;;5027177;28;20561;-15
2023/09/10 11:56:51;;;;;;;5.10;4.60;;;45.90;41.20;;;;;;5058429;28;20033;-14
2023/09/10 11:59:19;;;;;;;5.45;4.90;;;46.00;40.50;;;;;;5033345;28;20040;-14
2023/09/10 12:01:45;;;;;;;5.15;4.65;;;46.00;40.60;;;;;;5033640;28;20055;-14
2023/09/10 12:04:11;;;;;;;7.37;4.67;;;46.00;40.70;;;;;;5045713;28;20695;-15
2023/09/10 12:06:37;;;;;;;5.40;5.00;;;46.00;40.60;;;;;;5053052;28;20431;-14
2023/09/10 12:09:04;;;;;;;4.93;4.43;;;46.00;40.40;;;;;;5038955;28;20039;-16
2023/09/10 12:11:33;;;;;;;5.50;5.00;;;46.10;40.50;;;;;;5045596;28;20658;-14
2023/09/10 12:13:59;;;;;;;5.33;4.90;;;46.20;40.20;;;;;;5057685;28;20585;-15
2023/09/10 12:16:26;;;;;;;5.22;4.82;;;46.20;40.20;;;;;;5045501;28;20027;-14
2023/09/10 12:18:52;;;;;;;5.43;4.82;;;46.30;40.00;;;;;;5039665;28;20510;-14
2023/09/10 12:21:19;;;;;;;4.20;3.80;;;46.30;39.50;;;;;;5040196;28;20967;-14
2023/09/10 12:23:45;;;;;;;5.05;4.05;;;46.30;39.40;;;;;;5026873;28;20033;-14
2023/09/10 12:26:14;;;;;;;5.85;4.80;;;46.40;39.10;;;;;;5013041;28;20039;-15
2023/09/10 12:28:40;;;;;;;4.70;4.30;;;46.40;39.00;;;;;;5033535;28;20049;-14
2023/09/10 12:31:06;;;;;;;4.80;4.40;;;46.40;39.00;;;;;;5026531;28;20581;-15
2023/09/10 12:33:32;;;;;;;5.73;4.60;;;46.40;38.10;;;;;;5011162;28;20114;-14
2023/09/10 12:35:58;;;;;;;4.65;4.25;;;46.30;38.10;;;;;;5013157;28;20299;-14
2023/09/10 12:38:24;;;;;;;5.20;4.28;;;46.30;37.80;;;;;;5016547;28;20593;-14
2023/09/10 12:40:50;;;;;;;6.10;4.07;;;46.30;37.30;;;;;;5000441;28;20067;-15
2023/09/10 12:43:19;;;;;;;5.18;3.75;;;46.30;37.40;;;;;;5031197;28;20301;-14
2023/09/10 12:45:52;;;;;;;4.80;4.40;;;46.20;36.50;;;;;;5015425;28;20506;-14
2023/09/10 12:48:18;;;;;;;4.70;4.30;;;46.20;37.10;;;;;;5012200;28;20559;-14
2023/09/10 12:50:48;;;;;;;6.25;4.40;;;46.10;37.00;;;;;;5023281;28;20021;-15